createdAt,value
2018-08-30T00:02:11.507Z,1.00
2018-08-30T00:04:40.165Z,1.00
2018-08-30T00:07:08.538Z,1.00
2018-08-30T00:09:36.906Z,1.00
2018-08-30T00:12:05.505Z,1.00
2018-08-30T00:14:34.450Z,1.00
2018-08-30T00:17:03.506Z,1.00
2018-08-30T00:19:31.925Z,1.00
2018-08-30T00:22:00.594Z,1.00
2018-08-30T00:24:28.935Z,1.00
2018-08-30T00:26:57.342Z,1.00
2018-08-30T00:29:25.946Z,1.00
2018-08-30T00:31:55.346Z,1.00
2018-08-30T00:34:24.714Z,1.00
2018-08-30T00:36:53.085Z,1.00
2018-08-30T00:39:21.435Z,1.00
2018-08-30T00:41:50.038Z,1.00
2018-08-30T00:44:18.702Z,1.00
2018-08-30T00:46:47.098Z,1.00
2018-08-30T00:49:17.065Z,1.00
2018-08-30T00:51:45.682Z,1.00
2018-08-30T00:54:14.262Z,1.00
2018-08-30T00:56:42.893Z,1.00
2018-08-30T00:59:11.583Z,1.00
2018-08-30T01:01:40.299Z,1.00
2018-08-30T01:04:08.671Z,1.00
2018-08-30T01:06:38.726Z,1.00
2018-08-30T01:09:07.634Z,1.00
2018-08-30T01:11:36.597Z,1.00
2018-08-30T01:14:04.987Z,1.00
2018-08-30T01:16:33.739Z,1.00
2018-08-30T01:19:02.683Z,1.00
2018-08-30T01:21:31.362Z,1.00
2018-08-30T01:23:59.785Z,1.00
2018-08-30T01:26:28.422Z,1.00
2018-08-30T01:28:57.109Z,1.00
2018-08-30T01:31:25.586Z,1.00
2018-08-30T01:33:54.227Z,1.00
2018-08-30T01:36:23.163Z,1.00
2018-08-30T01:38:51.830Z,1.00
2018-08-30T01:41:20.540Z,1.00
2018-08-30T01:43:50.946Z,1.00
2018-08-30T01:46:20.915Z,1.00
2018-08-30T01:48:55.885Z,1.00
2018-08-30T01:51:24.262Z,1.00
2018-08-30T01:53:53.073Z,1.00
2018-08-30T01:56:21.678Z,1.00
2018-08-30T01:58:50.090Z,1.00
2018-08-30T02:01:18.454Z,1.00
2018-08-30T02:03:47.286Z,1.00
2018-08-30T02:06:15.674Z,1.00
2018-08-30T02:08:44.010Z,1.00
2018-08-30T02:11:13.047Z,1.00
2018-08-30T02:13:41.422Z,1.00
2018-08-30T02:16:09.901Z,1.00
2018-08-30T02:18:39.089Z,1.00
2018-08-30T02:21:07.770Z,1.00
2018-08-30T02:23:36.402Z,1.00
2018-08-30T02:26:05.150Z,1.00
2018-08-30T02:28:33.518Z,1.00
2018-08-30T02:31:02.641Z,1.00
2018-08-30T02:33:31.274Z,1.00
2018-08-30T02:35:59.885Z,1.00
2018-08-30T02:38:28.570Z,1.00
2018-08-30T02:40:56.970Z,1.00
2018-08-30T02:43:25.695Z,1.00
2018-08-30T02:45:54.246Z,1.00
2018-08-30T02:48:24.216Z,1.00
2018-08-30T02:50:53.128Z,1.00
2018-08-30T02:53:21.723Z,1.00
2018-08-30T02:55:50.907Z,1.00
2018-08-30T02:58:19.630Z,1.00
2018-08-30T03:00:48.583Z,1.00
2018-08-30T03:03:16.947Z,1.00
2018-08-30T03:05:45.874Z,1.00
2018-08-30T03:08:14.744Z,1.00
2018-08-30T03:10:43.335Z,1.00
2018-08-30T03:13:12.099Z,1.00
2018-08-30T03:15:40.704Z,1.00
2018-08-30T03:18:09.439Z,1.00
2018-08-30T03:20:38.438Z,1.00
2018-08-30T03:23:07.367Z,1.00
2018-08-30T03:25:35.990Z,1.00
2018-08-30T03:28:04.382Z,1.00
2018-08-30T03:30:33.452Z,1.00
2018-08-30T03:33:02.330Z,1.00
2018-08-30T03:35:30.706Z,1.00
2018-08-30T03:40:27.962Z,1.00
2018-08-30T03:42:56.338Z,1.00
2018-08-30T03:45:24.686Z,1.00
2018-08-30T03:47:53.061Z,1.00
2018-08-30T03:50:22.179Z,1.00
2018-08-30T03:52:50.550Z,1.00
2018-08-30T03:55:19.750Z,1.00
2018-08-30T03:57:48.270Z,1.00
2018-08-30T04:00:16.934Z,1.00
2018-08-30T04:02:45.286Z,1.00
2018-08-30T04:05:14.303Z,1.00
2018-08-30T04:07:43.215Z,1.00
2018-08-30T04:10:11.570Z,1.00
2018-08-30T04:12:40.266Z,1.00
2018-08-30T04:15:09.131Z,1.00
2018-08-30T04:17:37.722Z,1.00
2018-08-30T04:20:06.382Z,1.00
2018-08-30T04:22:34.994Z,1.00
2018-08-30T04:25:03.477Z,1.00
2018-08-30T04:27:31.851Z,1.00
2018-08-30T04:30:00.762Z,1.00
2018-08-30T04:32:29.737Z,1.00
2018-08-30T04:34:58.973Z,1.00
2018-08-30T04:37:27.322Z,1.00
2018-08-30T04:39:55.668Z,1.00
2018-08-30T04:42:24.143Z,1.00
2018-08-30T04:44:52.452Z,1.00
2018-08-30T04:47:21.382Z,1.00
2018-08-30T04:49:51.309Z,1.00
2018-08-30T04:52:21.055Z,1.00
2018-08-30T04:54:49.691Z,1.00
2018-08-30T04:57:18.286Z,1.00
2018-08-30T04:59:46.668Z,1.00
2018-08-30T05:02:15.342Z,1.00
2018-08-30T05:04:44.090Z,1.00
2018-08-30T05:07:12.722Z,1.00
2018-08-30T05:09:42.091Z,1.00
2018-08-30T05:12:10.855Z,1.00
2018-08-30T05:14:39.706Z,1.00
2018-08-30T05:17:08.071Z,1.00
2018-08-30T05:19:36.430Z,1.00
2018-08-30T05:22:05.191Z,1.00
2018-08-30T05:24:33.574Z,1.00
2018-08-30T05:27:02.255Z,1.00
2018-08-30T05:29:31.148Z,1.00
2018-08-30T05:31:59.826Z,1.00
2018-08-30T05:34:28.174Z,1.00
2018-08-30T05:36:57.410Z,1.00
2018-08-30T05:39:25.930Z,1.00
2018-08-30T05:41:54.570Z,1.00
2018-08-30T05:44:22.949Z,1.00
2018-08-30T05:46:51.655Z,1.00
2018-08-30T05:49:20.242Z,1.00
2018-08-30T05:51:48.870Z,1.00
2018-08-30T05:54:17.553Z,1.00
2018-08-30T05:56:45.936Z,1.00
2018-08-30T05:59:14.547Z,1.00
2018-08-30T06:01:43.255Z,1.00
2018-08-30T06:04:12.844Z,14.00
2018-08-30T06:06:41.450Z,25.00
2018-08-30T06:09:09.850Z,37.20
2018-08-30T06:11:38.831Z,34.50
2018-08-30T06:14:07.237Z,40.80
2018-08-30T06:16:35.959Z,47.30
2018-08-30T06:19:12.224Z,53.10
2018-08-30T06:21:40.606Z,57.60
2018-08-30T06:24:09.090Z,57.90
2018-08-30T06:26:37.734Z,60.60
2018-08-30T06:29:06.899Z,65.00
2018-08-30T06:31:35.891Z,64.50
2018-08-30T06:34:04.510Z,68.20
2018-08-30T06:36:33.099Z,66.20
2018-08-30T06:39:01.724Z,71.00
2018-08-30T06:41:30.334Z,67.10
2018-08-30T06:43:58.974Z,65.60
2018-08-30T06:46:27.358Z,62.40
2018-08-30T06:48:55.855Z,66.70
2018-08-30T06:51:25.242Z,56.40
2018-08-30T06:53:53.603Z,62.30
2018-08-30T06:56:22.095Z,57.50
2018-08-30T06:58:50.399Z,58.10
2018-08-30T07:01:18.822Z,58.90
2018-08-30T07:03:47.474Z,56.10
2018-08-30T07:06:15.824Z,55.20
2018-08-30T07:08:44.166Z,55.60
2018-08-30T07:11:12.600Z,52.90
2018-08-30T07:13:41.846Z,50.80
2018-08-30T07:16:10.500Z,52.10
2018-08-30T07:18:38.858Z,51.60
2018-08-30T07:21:07.785Z,46.30
2018-08-30T07:23:36.118Z,51.20
2018-08-30T07:26:04.491Z,56.90
2018-08-30T07:28:32.900Z,45.50
2018-08-30T07:31:01.278Z,42.10
2018-08-30T07:33:29.643Z,33.10
2018-08-30T07:35:59.216Z,36.00
2018-08-30T07:38:27.602Z,36.80
2018-08-30T07:40:55.966Z,26.20
2018-08-30T07:43:24.662Z,23.00
2018-08-30T07:45:53.035Z,33.10
2018-08-30T07:48:21.726Z,26.30
2018-08-30T07:50:50.172Z,9.10
2018-08-30T07:53:18.517Z,6.40
2018-08-30T07:55:47.118Z,12.30
2018-08-30T07:58:16.059Z,20.80
2018-08-30T08:00:47.451Z,12.80
2018-08-30T08:03:17.663Z,13.50
2018-08-30T08:05:46.038Z,16.60
2018-08-30T08:08:15.127Z,9.80
2018-08-30T08:10:44.026Z,4.30
2018-08-30T08:13:12.417Z,1.00
2018-08-30T08:15:40.798Z,1.00
2018-08-30T08:18:09.250Z,1.00
2018-08-30T08:20:38.114Z,1.00
2018-08-30T08:23:06.474Z,1.00
2018-08-30T08:25:34.852Z,1.00
2018-08-30T08:28:03.552Z,1.00
2018-08-30T08:30:32.263Z,1.00
2018-08-30T08:33:00.634Z,1.00
2018-08-30T08:35:29.612Z,1.00
2018-08-30T08:37:58.315Z,1.00
2018-08-30T08:40:26.984Z,1.00
2018-08-30T08:42:55.601Z,1.00
2018-08-30T08:45:23.970Z,1.00
2018-08-30T08:47:52.998Z,1.00
2018-08-30T08:50:21.314Z,1.00
2018-08-30T08:52:49.734Z,1.00
2018-08-30T08:55:18.395Z,1.00
2018-08-30T08:57:46.855Z,1.00
2018-08-30T09:00:15.330Z,1.00
2018-08-30T09:02:44.047Z,70.30
2018-08-30T09:05:12.710Z,1.00
2018-08-30T09:07:41.126Z,1.00
2018-08-30T09:10:10.082Z,99.90
2018-08-30T09:12:38.472Z,1.00
2018-08-30T09:15:06.904Z,99.90
2018-08-30T09:17:35.558Z,99.90
2018-08-30T09:20:04.026Z,99.90
2018-08-30T09:22:32.423Z,99.90
2018-08-30T09:25:00.766Z,1.00
2018-08-30T09:27:29.442Z,1.00
2018-08-30T09:29:58.620Z,1.00
2018-08-30T09:32:27.787Z,99.90
2018-08-30T09:34:56.583Z,99.90
2018-08-30T09:37:25.575Z,99.90
2018-08-30T09:39:54.500Z,99.90
2018-08-30T09:42:23.063Z,58.00
2018-08-30T09:44:51.763Z,99.90
2018-08-30T09:47:20.398Z,99.90
2018-08-30T09:49:49.201Z,1.00
2018-08-30T09:52:18.623Z,1.00
2018-08-30T09:54:47.254Z,99.90
2018-08-30T09:57:16.272Z,1.00
2018-08-30T09:59:44.841Z,1.00
2018-08-30T10:02:18.942Z,99.90
2018-08-30T10:04:47.961Z,1.00
2018-08-30T10:07:16.262Z,1.00
2018-08-30T10:09:45.409Z,99.90
2018-08-30T10:12:13.797Z,99.90
2018-08-30T10:14:42.189Z,99.90
2018-08-30T10:17:11.159Z,61.20
2018-08-30T10:19:39.563Z,44.60
2018-08-30T10:22:08.647Z,19.50
2018-08-30T10:24:37.295Z,1.00
2018-08-30T10:27:05.811Z,30.10
2018-08-30T10:29:34.471Z,4.70
2018-08-30T10:32:03.775Z,1.00
2018-08-30T10:34:32.163Z,1.00
2018-08-30T10:37:01.203Z,1.00
2018-08-30T10:39:29.499Z,1.00
2018-08-30T10:41:58.630Z,1.00
2018-08-30T10:44:26.991Z,1.00
2018-08-30T10:46:55.666Z,1.00
2018-08-30T10:49:24.213Z,1.00
2018-08-30T10:51:52.878Z,1.00
2018-08-30T10:54:21.598Z,1.00
2018-08-30T10:56:50.258Z,1.00
2018-08-30T10:59:18.718Z,1.00
2018-08-30T11:01:47.522Z,1.00
2018-08-30T11:04:16.659Z,1.00
2018-08-30T11:06:45.256Z,1.00
2018-08-30T11:09:13.625Z,1.00
2018-08-30T11:11:42.557Z,1.00
2018-08-30T11:14:10.939Z,1.00
2018-08-30T11:16:39.593Z,1.00
2018-08-30T11:19:09.267Z,1.00
2018-08-30T11:21:37.610Z,1.00
2018-08-30T11:24:06.526Z,1.00
2018-08-30T11:26:35.557Z,1.00
2018-08-30T11:29:04.423Z,1.00
2018-08-30T11:31:32.887Z,1.00
2018-08-30T11:34:01.616Z,1.00
2018-08-30T11:36:30.053Z,1.00
2018-08-30T11:38:58.674Z,1.00
2018-08-30T11:41:27.125Z,1.00
2018-08-30T11:43:55.703Z,1.00
2018-08-30T11:46:24.490Z,1.00
2018-08-30T11:51:21.982Z,1.00
2018-08-30T11:53:51.147Z,1.00
2018-08-30T11:56:19.520Z,1.00
2018-08-30T11:58:48.266Z,1.00
2018-08-30T12:01:16.648Z,1.00
2018-08-30T12:03:46.097Z,1.00
2018-08-30T12:06:14.786Z,1.00
2018-08-30T12:08:43.227Z,1.00
2018-08-30T12:11:11.975Z,1.00
2018-08-30T12:13:40.330Z,1.00
2018-08-30T12:16:09.074Z,1.00
2018-08-30T12:18:37.752Z,1.00
2018-08-30T12:21:06.404Z,1.00
2018-08-30T12:23:35.047Z,1.00
2018-08-30T12:26:03.708Z,99.90
2018-08-30T12:28:32.517Z,99.90
2018-08-30T12:31:02.161Z,99.90
2018-08-30T12:33:30.827Z,99.90
2018-08-30T12:35:59.992Z,99.90
2018-08-30T12:38:28.652Z,99.90
2018-08-30T12:40:57.069Z,99.90
2018-08-30T12:43:26.384Z,99.90
2018-08-30T12:45:54.887Z,99.90
2018-08-30T12:48:23.696Z,99.90
2018-08-30T12:50:53.218Z,99.90
2018-08-30T12:53:22.702Z,99.90
2018-08-30T12:55:51.128Z,99.90
2018-08-30T12:58:20.121Z,99.90
2018-08-30T13:00:48.384Z,99.90
2018-08-30T13:03:16.858Z,99.90
2018-08-30T13:05:45.642Z,99.90
2018-08-30T13:08:14.261Z,99.90
2018-08-30T13:10:42.881Z,99.90
2018-08-30T13:13:11.665Z,99.90
2018-08-30T13:15:40.765Z,99.90
2018-08-30T13:18:09.538Z,99.90
2018-08-30T13:20:38.025Z,99.90
2018-08-30T13:23:06.869Z,99.90
2018-08-30T13:25:35.721Z,99.90
2018-08-30T13:28:04.674Z,99.90
2018-08-30T13:30:33.199Z,99.90
2018-08-30T13:33:02.082Z,99.90
2018-08-30T13:35:30.937Z,99.90
2018-08-30T13:37:59.840Z,99.90
2018-08-30T13:40:28.716Z,99.90
2018-08-30T13:42:57.230Z,99.90
2018-08-30T13:45:26.408Z,99.90
2018-08-30T13:47:55.011Z,99.90
2018-08-30T13:50:23.758Z,99.90
2018-08-30T13:52:52.946Z,99.90
2018-08-30T13:55:23.546Z,99.90
2018-08-30T13:57:54.111Z,99.90
2018-08-30T14:00:23.095Z,99.90
2018-08-30T14:02:52.578Z,99.90
2018-08-30T14:05:21.933Z,99.90
2018-08-30T14:07:51.502Z,99.90
2018-08-30T14:10:20.972Z,99.90
2018-08-30T14:12:49.436Z,99.90
2018-08-30T14:15:19.149Z,99.90
2018-08-30T14:17:47.120Z,99.90
2018-08-30T14:20:16.666Z,99.90
2018-08-30T14:22:45.809Z,99.90
2018-08-30T14:25:15.356Z,99.90
2018-08-30T14:27:44.267Z,99.90
2018-08-30T14:30:13.548Z,99.90
2018-08-30T14:32:43.023Z,99.90
2018-08-30T14:35:12.172Z,99.90
2018-08-30T14:37:40.963Z,99.90
2018-08-30T14:40:09.913Z,99.90
2018-08-30T14:42:38.824Z,99.90
2018-08-30T14:45:07.194Z,99.90
2018-08-30T14:47:35.752Z,99.90
2018-08-30T14:50:05.264Z,99.90
2018-08-30T14:52:34.486Z,99.90
2018-08-30T14:55:03.943Z,99.90
2018-08-30T14:57:32.963Z,99.90
2018-08-30T15:00:03.625Z,1.00
2018-08-30T15:02:32.277Z,1.00
2018-08-30T15:05:00.635Z,1.00
2018-08-30T15:07:29.227Z,99.90
2018-08-30T15:09:58.872Z,99.90
2018-08-30T15:12:28.593Z,1.00
2018-08-30T15:14:57.270Z,99.90
2018-08-30T15:17:25.815Z,99.90
2018-08-30T15:19:56.025Z,99.90
2018-08-30T15:22:24.716Z,99.90
2018-08-30T15:24:53.196Z,99.90
2018-08-30T15:27:22.143Z,99.90
2018-08-30T15:29:50.515Z,99.90
2018-08-30T15:32:19.814Z,99.90
2018-08-30T15:34:48.922Z,99.90
2018-08-30T15:37:17.851Z,99.90
2018-08-30T15:39:52.842Z,99.90
2018-08-30T15:42:21.532Z,99.90
2018-08-30T15:44:50.524Z,99.90
2018-08-30T15:47:19.675Z,99.90
2018-08-30T15:49:48.491Z,99.90
2018-08-30T15:52:17.363Z,99.90
2018-08-30T15:54:45.894Z,99.90
2018-08-30T15:57:15.509Z,99.90
2018-08-30T15:59:44.185Z,99.90
2018-08-30T16:02:13.021Z,99.90
2018-08-30T16:04:41.580Z,99.90
2018-08-30T16:07:10.168Z,99.90
2018-08-30T16:09:39.075Z,99.90
2018-08-30T16:12:08.697Z,99.90
2018-08-30T16:14:37.843Z,99.90
2018-08-30T16:17:07.330Z,99.90
2018-08-30T16:19:35.701Z,99.90
2018-08-30T16:22:04.063Z,99.90
2018-08-30T16:24:32.503Z,99.90
2018-08-30T16:27:01.147Z,99.90
2018-08-30T16:29:30.332Z,99.90
2018-08-30T16:31:58.615Z,99.90
2018-08-30T16:34:28.245Z,99.90
2018-08-30T16:36:57.636Z,99.90
2018-08-30T16:39:27.200Z,99.90
2018-08-30T16:41:55.607Z,99.90
2018-08-30T16:44:24.195Z,99.90
2018-08-30T16:46:54.751Z,99.90
2018-08-30T16:49:23.768Z,99.90
2018-08-30T16:51:52.406Z,99.90
2018-08-30T16:54:21.378Z,99.90
2018-08-30T16:56:50.888Z,99.90
2018-08-30T16:59:20.203Z,99.90
2018-08-30T17:01:48.703Z,99.90
2018-08-30T17:04:17.625Z,99.90
2018-08-30T17:06:46.169Z,99.90
2018-08-30T17:09:15.609Z,99.90
2018-08-30T17:11:46.156Z,99.90
2018-08-30T17:14:15.806Z,99.90
2018-08-30T17:16:44.699Z,99.90
2018-08-30T17:19:22.560Z,99.90
2018-08-30T17:21:51.240Z,99.90
2018-08-30T17:24:20.009Z,99.90
2018-08-30T17:26:48.692Z,99.90
2018-08-30T17:29:17.746Z,99.90
2018-08-30T17:31:46.761Z,99.90
2018-08-30T17:34:15.678Z,99.90
2018-08-30T17:36:45.074Z,1.00
2018-08-30T17:39:14.141Z,1.00
2018-08-30T17:41:42.554Z,1.00
2018-08-30T17:44:11.779Z,1.00
2018-08-30T17:46:40.329Z,1.00
2018-08-30T17:49:09.121Z,99.90
2018-08-30T17:51:37.556Z,1.00
2018-08-30T17:54:06.510Z,1.00
2018-08-30T17:59:03.029Z,99.90
2018-08-30T18:01:31.530Z,1.00
2018-08-30T18:03:59.791Z,1.00
2018-08-30T18:06:28.143Z,1.00
2018-08-30T18:08:56.683Z,1.00
2018-08-30T18:11:25.030Z,1.00
2018-08-30T18:13:53.673Z,1.00
2018-08-30T18:16:22.535Z,1.00
2018-08-30T18:18:51.415Z,1.00
2018-08-30T18:21:20.007Z,1.00
2018-08-30T18:23:48.372Z,1.00
2018-08-30T18:26:17.613Z,1.00
2018-08-30T18:28:45.995Z,1.00
2018-08-30T18:31:16.058Z,1.00
2018-08-30T18:33:44.723Z,1.00
2018-08-30T18:36:13.663Z,1.00
2018-08-30T18:38:42.155Z,1.00
2018-08-30T18:41:10.590Z,1.00
2018-08-30T18:43:39.188Z,1.00
2018-08-30T18:46:07.630Z,1.00
2018-08-30T18:48:36.006Z,1.00
2018-08-30T18:51:05.739Z,1.00
2018-08-30T18:53:34.123Z,1.00
2018-08-30T18:56:02.470Z,1.00
2018-08-30T18:58:30.935Z,1.00
2018-08-30T19:01:00.100Z,1.00
2018-08-30T19:03:29.066Z,1.00
2018-08-30T19:05:58.874Z,1.00
2018-08-30T19:08:27.483Z,1.00
2018-08-30T19:10:56.226Z,1.00
2018-08-30T19:13:25.489Z,1.00
2018-08-30T19:15:59.026Z,1.00
2018-08-30T19:18:33.334Z,1.00
2018-08-30T19:21:02.226Z,1.00
2018-08-30T19:23:30.882Z,1.00
2018-08-30T19:25:59.418Z,1.00
2018-08-30T19:28:28.324Z,1.00
2018-08-30T19:30:56.743Z,1.00
2018-08-30T19:33:25.678Z,1.00
2018-08-30T19:35:59.640Z,1.00
2018-08-30T19:38:28.709Z,1.00
2018-08-30T19:41:02.602Z,1.00
2018-08-30T19:43:31.806Z,1.00
2018-08-30T19:46:00.375Z,1.00
2018-08-30T19:48:30.211Z,1.00
2018-08-30T19:50:59.320Z,18.30
2018-08-30T19:53:28.323Z,26.40
2018-08-30T19:55:57.202Z,99.90
2018-08-30T19:58:25.629Z,99.90
2018-08-30T20:00:53.977Z,99.90
2018-08-30T20:03:23.427Z,99.90
2018-08-30T20:05:52.052Z,99.90
2018-08-30T20:08:20.423Z,99.90
2018-08-30T20:10:49.157Z,99.90
2018-08-30T20:13:18.418Z,1.00
2018-08-30T20:15:47.290Z,1.00
2018-08-30T20:18:15.658Z,16.70
2018-08-30T20:20:44.298Z,1.00
2018-08-30T20:23:13.011Z,99.90
2018-08-30T20:25:41.371Z,1.00
2018-08-30T20:28:09.810Z,1.00
2018-08-30T20:30:38.167Z,1.00
2018-08-30T20:33:06.667Z,1.00
2018-08-30T20:35:35.306Z,1.00
2018-08-30T20:38:03.730Z,99.90
2018-08-30T20:40:32.382Z,1.00
2018-08-30T20:43:01.003Z,99.90
2018-08-30T20:45:29.358Z,99.90
2018-08-30T20:47:57.964Z,94.20
2018-08-30T20:50:26.358Z,1.00
2018-08-30T20:52:54.759Z,99.90
2018-08-30T20:55:23.436Z,99.90
2018-08-30T20:57:51.815Z,99.90
2018-08-30T21:00:20.827Z,99.90
2018-08-30T21:02:49.150Z,99.90
2018-08-30T21:05:17.515Z,1.00
2018-08-30T21:07:46.192Z,1.00
2018-08-30T21:10:14.958Z,1.00
2018-08-30T21:12:43.346Z,1.00
2018-08-30T21:15:11.999Z,1.00
2018-08-30T21:17:40.365Z,1.00
2018-08-30T21:20:08.810Z,1.00
2018-08-30T21:22:37.166Z,1.00
2018-08-30T21:25:06.180Z,1.00
2018-08-30T21:27:35.580Z,99.90
2018-08-30T21:30:04.934Z,99.90
2018-08-30T21:32:33.813Z,99.90
2018-08-30T21:35:02.224Z,1.00
2018-08-30T21:37:30.531Z,99.90
2018-08-30T21:39:59.366Z,99.90
2018-08-30T21:42:28.038Z,99.90
2018-08-30T21:44:56.703Z,1.00
2018-08-30T21:47:25.128Z,99.90
2018-08-30T21:49:54.075Z,99.90
2018-08-30T21:52:22.450Z,1.00
2018-08-30T21:54:51.174Z,1.00
2018-08-30T21:57:19.607Z,43.20
2018-08-30T21:59:48.302Z,99.90
2018-08-30T22:02:16.986Z,92.10
2018-08-30T22:04:45.312Z,36.60
2018-08-30T22:07:13.696Z,87.60
2018-08-30T22:09:43.103Z,99.90
2018-08-30T22:12:11.479Z,99.90
2018-08-30T22:14:40.166Z,99.90
2018-08-30T22:17:09.492Z,1.00
2018-08-30T22:19:38.118Z,1.00
2018-08-30T22:22:07.030Z,99.90
2018-08-30T22:24:35.419Z,1.00
2018-08-30T22:27:03.778Z,99.90
2018-08-30T22:29:32.475Z,70.20
2018-08-30T22:32:01.170Z,99.90
2018-08-30T22:34:29.854Z,99.90
2018-08-30T22:36:58.542Z,99.90
2018-08-30T22:39:26.926Z,99.90
2018-08-30T22:41:55.591Z,99.90
2018-08-30T22:44:24.711Z,99.90
2018-08-30T22:46:53.608Z,99.90
2018-08-30T22:49:22.270Z,99.90
2018-08-30T22:51:50.667Z,99.90
2018-08-30T22:54:19.106Z,99.90
2018-08-30T22:56:47.482Z,99.90
2018-08-30T22:59:16.090Z,1.00
2018-08-30T23:01:44.630Z,99.90
2018-08-30T23:04:12.974Z,1.00
2018-08-30T23:06:41.447Z,1.00
2018-08-30T23:09:11.098Z,99.90
2018-08-30T23:11:39.638Z,1.00
2018-08-30T23:14:08.351Z,1.00
2018-08-30T23:16:37.398Z,1.00
2018-08-30T23:19:06.290Z,1.00
2018-08-30T23:21:35.390Z,1.00
2018-08-30T23:24:03.774Z,1.00
2018-08-30T23:26:36.238Z,1.00
2018-08-30T23:29:04.906Z,1.00
2018-08-30T23:31:33.282Z,1.00
2018-08-30T23:34:02.515Z,1.00
2018-08-30T23:36:31.338Z,1.00
2018-08-30T23:38:59.999Z,1.00
2018-08-30T23:41:28.355Z,1.00
2018-08-30T23:43:56.752Z,1.00
2018-08-30T23:46:25.374Z,1.00
2018-08-30T23:48:54.023Z,1.00
2018-08-30T23:51:23.012Z,1.00
2018-08-30T23:53:51.350Z,1.00
2018-08-30T23:56:20.002Z,1.00
2018-08-30T23:58:59.626Z,1.00
